sensor_id;sensor_type;location;lat;lon;timestamp;P1;durP1;ratioP1;P2;durP2;ratioP2
12725;SDS011;6427;49.754;6.106;2022-09-13T00:01:00;5.70;;;3.20;;
12725;SDS011;6427;49.754;6.106;2022-09-13T00:03:28;5.73;;;3.00;;
12725;SDS011;6427;49.754;6.106;2022-09-13T00:05:56;3.80;;;2.97;;
12725;SDS011;6427;49.754;6.106;2022-09-13T00:08:23;2.93;;;2.60;;
12725;SDS011;6427;49.754;6.106;2022-09-13T00:10:51;5.63;;;2.93;;
12725;SDS011;6427;49.754;6.106;2022-09-13T00:13:19;5.43;;;3.03;;
12725;SDS011;6427;49.754;6.106;2022-09-13T00:15:47;6.13;;;3.40;;
12725;SDS011;6427;49.754;6.106;2022-09-13T00:18:15;5.47;;;3.67;;
12725;SDS011;6427;49.754;6.106;2022-09-13T00:20:42;8.60;;;4.17;;
12725;SDS011;6427;49.754;6.106;2022-09-13T00:23:10;8.80;;;3.57;;
12725;SDS011;6427;49.754;6.106;2022-09-13T00:25:38;5.77;;;3.73;;
12725;SDS011;6427;49.754;6.106;2022-09-13T00:28:06;5.87;;;3.90;;
12725;SDS011;6427;49.754;6.106;2022-09-13T00:30:33;5.73;;;4.10;;
12725;SDS011;6427;49.754;6.106;2022-09-13T00:33:01;5.10;;;3.83;;
12725;SDS011;6427;49.754;6.106;2022-09-13T00:35:29;6.67;;;4.10;;
12725;SDS011;6427;49.754;6.106;2022-09-13T00:37:57;10.77;;;4.83;;
12725;SDS011;6427;49.754;6.106;2022-09-13T00:40:24;6.40;;;4.50;;
12725;SDS011;6427;49.754;6.106;2022-09-13T00:42:51;9.40;;;4.37;;
12725;SDS011;6427;49.754;6.106;2022-09-13T00:45:19;7.23;;;4.60;;
12725;SDS011;6427;49.754;6.106;2022-09-13T00:47:48;5.50;;;4.10;;
12725;SDS011;6427;49.754;6.106;2022-09-13T00:50:23;9.37;;;4.40;;
12725;SDS011;6427;49.754;6.106;2022-09-13T00:53:11;8.57;;;4.50;;
12725;SDS011;6427;49.754;6.106;2022-09-13T00:55:34;6.60;;;4.10;;
12725;SDS011;6427;49.754;6.106;2022-09-13T00:58:05;8.90;;;4.90;;
12725;SDS011;6427;49.754;6.106;2022-09-13T01:00:32;9.57;;;4.97;;
12725;SDS011;6427;49.754;6.106;2022-09-13T01:03:01;6.37;;;3.63;;
12725;SDS011;6427;49.754;6.106;2022-09-13T01:05:29;8.70;;;3.67;;
12725;SDS011;6427;49.754;6.106;2022-09-13T01:07:55;6.13;;;3.20;;
12725;SDS011;6427;49.754;6.106;2022-09-13T01:10:22;6.57;;;3.30;;
12725;SDS011;6427;49.754;6.106;2022-09-13T01:12:52;6.43;;;3.73;;
12725;SDS011;6427;49.754;6.106;2022-09-13T01:15:32;7.27;;;3.37;;
12725;SDS011;6427;49.754;6.106;2022-09-13T01:18:00;6.80;;;3.70;;
12725;SDS011;6427;49.754;6.106;2022-09-13T01:20:31;6.10;;;3.50;;
12725;SDS011;6427;49.754;6.106;2022-09-13T01:28:45;8.60;;;4.33;;
12725;SDS011;6427;49.754;6.106;2022-09-13T01:31:13;7.50;;;5.00;;
12725;SDS011;6427;49.754;6.106;2022-09-13T01:39:32;8.97;;;4.30;;
12725;SDS011;6427;49.754;6.106;2022-09-13T01:42:00;6.23;;;4.27;;
12725;SDS011;6427;49.754;6.106;2022-09-13T01:49:45;5.47;;;4.10;;
12725;SDS011;6427;49.754;6.106;2022-09-13T01:58:00;8.87;;;4.33;;
12725;SDS011;6427;49.754;6.106;2022-09-13T02:00:24;8.43;;;4.53;;
12725;SDS011;6427;49.754;6.106;2022-09-13T02:02:54;7.57;;;4.47;;
12725;SDS011;6427;49.754;6.106;2022-09-13T02:08:10;9.40;;;4.50;;
12725;SDS011;6427;49.754;6.106;2022-09-13T02:11:23;7.07;;;4.53;;
12725;SDS011;6427;49.754;6.106;2022-09-13T02:13:24;6.03;;;5.00;;
12725;SDS011;6427;49.754;6.106;2022-09-13T02:15:51;5.77;;;3.90;;
12725;SDS011;6427;49.754;6.106;2022-09-13T02:18:22;11.20;;;4.30;;
12725;SDS011;6427;49.754;6.106;2022-09-13T02:20:49;7.03;;;4.33;;
12725;SDS011;6427;49.754;6.106;2022-09-13T02:23:17;7.87;;;4.50;;
12725;SDS011;6427;49.754;6.106;2022-09-13T02:25:43;5.63;;;4.13;;
12725;SDS011;6427;49.754;6.106;2022-09-13T02:28:12;7.97;;;4.70;;
12725;SDS011;6427;49.754;6.106;2022-09-13T02:30:40;7.33;;;5.07;;
12725;SDS011;6427;49.754;6.106;2022-09-13T02:33:11;13.27;;;5.07;;
12725;SDS011;6427;49.754;6.106;2022-09-13T02:35:39;11.13;;;5.20;;
12725;SDS011;6427;49.754;6.106;2022-09-13T02:38:16;11.63;;;4.80;;
12725;SDS011;6427;49.754;6.106;2022-09-13T02:40:42;6.63;;;4.80;;
12725;SDS011;6427;49.754;6.106;2022-09-13T02:43:11;11.83;;;4.93;;
12725;SDS011;6427;49.754;6.106;2022-09-13T02:45:41;13.07;;;5.20;;
12725;SDS011;6427;49.754;6.106;2022-09-13T02:48:19;8.77;;;5.07;;
12725;SDS011;6427;49.754;6.106;2022-09-13T02:51:06;11.33;;;5.80;;
12725;SDS011;6427;49.754;6.106;2022-09-13T02:53:36;9.07;;;5.10;;
12725;SDS011;6427;49.754;6.106;2022-09-13T02:56:06;10.43;;;4.93;;
12725;SDS011;6427;49.754;6.106;2022-09-13T02:58:51;9.13;;;4.30;;
12725;SDS011;6427;49.754;6.106;2022-09-13T03:01:17;7.87;;;4.20;;
12725;SDS011;6427;49.754;6.106;2022-09-13T03:03:44;9.38;;;5.50;;
12725;SDS011;6427;49.754;6.106;2022-09-13T03:06:12;8.63;;;5.50;;
12725;SDS011;6427;49.754;6.106;2022-09-13T03:08:39;11.10;;;5.23;;
12725;SDS011;6427;49.754;6.106;2022-09-13T03:30:11;6.57;;;4.10;;
12725;SDS011;6427;49.754;6.106;2022-09-13T03:38:00;6.10;;;4.37;;
12725;SDS011;6427;49.754;6.106;2022-09-13T03:40:48;7.17;;;4.67;;
12725;SDS011;6427;49.754;6.106;2022-09-13T03:45:53;13.67;;;5.33;;
12725;SDS011;6427;49.754;6.106;2022-09-13T03:48:19;14.50;;;5.20;;
12725;SDS011;6427;49.754;6.106;2022-09-13T03:50:47;7.57;;;5.10;;
12725;SDS011;6427;49.754;6.106;2022-09-13T03:53:17;7.07;;;4.80;;
12725;SDS011;6427;49.754;6.106;2022-09-13T03:55:42;8.27;;;4.90;;
12725;SDS011;6427;49.754;6.106;2022-09-13T03:58:11;7.37;;;4.47;;
12725;SDS011;6427;49.754;6.106;2022-09-13T04:00:39;8.90;;;4.70;;
12725;SDS011;6427;49.754;6.106;2022-09-13T04:03:07;7.57;;;4.70;;
12725;SDS011;6427;49.754;6.106;2022-09-13T04:05:35;10.47;;;5.10;;
12725;SDS011;6427;49.754;6.106;2022-09-13T04:08:03;9.10;;;5.10;;
12725;SDS011;6427;49.754;6.106;2022-09-13T04:10:30;8.93;;;5.93;;
12725;SDS011;6427;49.754;6.106;2022-09-13T04:12:58;7.90;;;4.93;;
12725;SDS011;6427;49.754;6.106;2022-09-13T04:15:25;10.80;;;5.23;;
12725;SDS011;6427;49.754;6.106;2022-09-13T04:17:53;11.97;;;5.50;;
12725;SDS011;6427;49.754;6.106;2022-09-13T04:20:21;7.47;;;5.03;;
12725;SDS011;6427;49.754;6.106;2022-09-13T04:22:55;9.10;;;4.67;;
12725;SDS011;6427;49.754;6.106;2022-09-13T04:25:20;7.27;;;5.30;;
12725;SDS011;6427;49.754;6.106;2022-09-13T04:27:47;7.13;;;5.50;;
12725;SDS011;6427;49.754;6.106;2022-09-13T04:30:14;9.33;;;4.90;;
12725;SDS011;6427;49.754;6.106;2022-09-13T04:32:42;9.87;;;5.57;;
12725;SDS011;6427;49.754;6.106;2022-09-13T04:35:10;11.20;;;6.10;;
12725;SDS011;6427;49.754;6.106;2022-09-13T04:37:38;8.47;;;5.77;;
12725;SDS011;6427;49.754;6.106;2022-09-13T04:40:06;11.07;;;5.57;;
12725;SDS011;6427;49.754;6.106;2022-09-13T04:42:33;11.17;;;5.23;;
12725;SDS011;6427;49.754;6.106;2022-09-13T04:45:02;11.17;;;6.07;;
12725;SDS011;6427;49.754;6.106;2022-09-13T04:47:29;6.57;;;5.60;;
12725;SDS011;6427;49.754;6.106;2022-09-13T04:49:57;11.57;;;5.37;;
12725;SDS011;6427;49.754;6.106;2022-09-13T04:52:25;8.77;;;5.17;;
12725;SDS011;6427;49.754;6.106;2022-09-13T04:54:53;12.33;;;5.57;;
12725;SDS011;6427;49.754;6.106;2022-09-13T04:57:21;7.80;;;5.53;;
12725;SDS011;6427;49.754;6.106;2022-09-13T04:59:49;10.70;;;5.27;;
12725;SDS011;6427;49.754;6.106;2022-09-13T05:02:16;8.07;;;5.57;;
12725;SDS011;6427;49.754;6.106;2022-09-13T05:04:44;8.37;;;5.27;;
12725;SDS011;6427;49.754;6.106;2022-09-13T05:07:11;6.33;;;5.27;;
12725;SDS011;6427;49.754;6.106;2022-09-13T05:09:39;9.47;;;5.47;;
12725;SDS011;6427;49.754;6.106;2022-09-13T05:12:07;6.80;;;5.23;;
12725;SDS011;6427;49.754;6.106;2022-09-13T05:14:35;9.93;;;5.80;;
12725;SDS011;6427;49.754;6.106;2022-09-13T05:17:02;8.17;;;5.30;;
12725;SDS011;6427;49.754;6.106;2022-09-13T05:19:30;11.27;;;5.17;;
12725;SDS011;6427;49.754;6.106;2022-09-13T05:21:58;9.77;;;5.30;;
12725;SDS011;6427;49.754;6.106;2022-09-13T05:24:26;7.13;;;5.40;;
12725;SDS011;6427;49.754;6.106;2022-09-13T05:26:53;6.63;;;5.10;;
12725;SDS011;6427;49.754;6.106;2022-09-13T05:29:21;8.63;;;5.67;;
12725;SDS011;6427;49.754;6.106;2022-09-13T05:31:49;9.50;;;5.13;;
12725;SDS011;6427;49.754;6.106;2022-09-13T05:34:17;10.70;;;5.40;;
12725;SDS011;6427;49.754;6.106;2022-09-13T05:36:44;9.40;;;5.83;;
12725;SDS011;6427;49.754;6.106;2022-09-13T05:39:13;8.40;;;5.60;;
12725;SDS011;6427;49.754;6.106;2022-09-13T05:41:40;6.90;;;5.50;;
12725;SDS011;6427;49.754;6.106;2022-09-13T05:44:08;10.60;;;5.67;;
12725;SDS011;6427;49.754;6.106;2022-09-13T05:46:35;10.97;;;5.00;;
12725;SDS011;6427;49.754;6.106;2022-09-13T05:49:03;8.03;;;5.10;;
12725;SDS011;6427;49.754;6.106;2022-09-13T05:51:31;12.23;;;5.50;;
12725;SDS011;6427;49.754;6.106;2022-09-13T05:53:59;9.17;;;5.47;;
12725;SDS011;6427;49.754;6.106;2022-09-13T05:56:27;11.73;;;5.27;;
12725;SDS011;6427;49.754;6.106;2022-09-13T05:58:54;8.57;;;5.43;;
12725;SDS011;6427;49.754;6.106;2022-09-13T06:01:22;6.60;;;5.07;;
12725;SDS011;6427;49.754;6.106;2022-09-13T06:03:50;8.77;;;5.67;;
12725;SDS011;6427;49.754;6.106;2022-09-13T06:06:18;13.63;;;6.03;;
12725;SDS011;6427;49.754;6.106;2022-09-13T06:08:45;10.77;;;5.47;;
12725;SDS011;6427;49.754;6.106;2022-09-13T06:11:14;8.73;;;5.40;;
12725;SDS011;6427;49.754;6.106;2022-09-13T06:13:41;11.87;;;6.37;;
12725;SDS011;6427;49.754;6.106;2022-09-13T06:16:10;12.55;;;6.57;;
12725;SDS011;6427;49.754;6.106;2022-09-13T06:18:36;9.03;;;5.60;;
12725;SDS011;6427;49.754;6.106;2022-09-13T06:21:08;6.93;;;4.97;;
12725;SDS011;6427;49.754;6.106;2022-09-13T06:23:32;8.33;;;4.60;;
12725;SDS011;6427;49.754;6.106;2022-09-13T06:26:10;7.33;;;4.73;;
12725;SDS011;6427;49.754;6.106;2022-09-13T06:28:37;6.63;;;4.93;;
12725;SDS011;6427;49.754;6.106;2022-09-13T06:31:09;5.60;;;4.13;;
12725;SDS011;6427;49.754;6.106;2022-09-13T06:33:33;6.33;;;4.07;;
12725;SDS011;6427;49.754;6.106;2022-09-13T06:36:05;11.57;;;4.57;;
12725;SDS011;6427;49.754;6.106;2022-09-13T06:38:28;10.03;;;4.07;;
12725;SDS011;6427;49.754;6.106;2022-09-13T06:41:03;7.20;;;4.90;;
12725;SDS011;6427;49.754;6.106;2022-09-13T06:43:29;11.30;;;4.27;;
12725;SDS011;6427;49.754;6.106;2022-09-13T06:46:03;6.80;;;4.33;;
12725;SDS011;6427;49.754;6.106;2022-09-13T06:48:30;5.90;;;4.10;;
12725;SDS011;6427;49.754;6.106;2022-09-13T06:50:58;6.53;;;4.65;;
12725;SDS011;6427;49.754;6.106;2022-09-13T06:53:25;7.70;;;4.53;;
12725;SDS011;6427;49.754;6.106;2022-09-13T06:56:01;8.70;;;4.10;;
12725;SDS011;6427;49.754;6.106;2022-09-13T06:58:33;5.40;;;4.00;;
12725;SDS011;6427;49.754;6.106;2022-09-13T07:01:43;5.47;;;4.28;;
12725;SDS011;6427;49.754;6.106;2022-09-13T07:03:47;4.30;;;3.73;;
12725;SDS011;6427;49.754;6.106;2022-09-13T07:06:14;6.97;;;3.70;;
12725;SDS011;6427;49.754;6.106;2022-09-13T07:08:41;6.97;;;4.07;;
12725;SDS011;6427;49.754;6.106;2022-09-13T07:11:08;3.70;;;3.30;;
12725;SDS011;6427;49.754;6.106;2022-09-13T07:13:36;5.47;;;3.60;;
12725;SDS011;6427;49.754;6.106;2022-09-13T07:16:08;5.37;;;3.63;;
12725;SDS011;6427;49.754;6.106;2022-09-13T07:18:35;6.50;;;3.40;;
12725;SDS011;6427;49.754;6.106;2022-09-13T07:21:03;5.87;;;3.70;;
12725;SDS011;6427;49.754;6.106;2022-09-13T07:23:34;7.80;;;3.67;;
12725;SDS011;6427;49.754;6.106;2022-09-13T07:25:57;8.13;;;3.80;;
12725;SDS011;6427;49.754;6.106;2022-09-13T07:28:25;4.13;;;3.73;;
12725;SDS011;6427;49.754;6.106;2022-09-13T07:30:53;7.27;;;4.13;;
12725;SDS011;6427;49.754;6.106;2022-09-13T07:33:21;7.37;;;3.50;;
12725;SDS011;6427;49.754;6.106;2022-09-13T07:35:53;5.10;;;3.03;;
12725;SDS011;6427;49.754;6.106;2022-09-13T07:38:16;6.30;;;3.40;;
12725;SDS011;6427;49.754;6.106;2022-09-13T07:40:43;6.70;;;3.67;;
12725;SDS011;6427;49.754;6.106;2022-09-13T07:43:11;3.50;;;3.07;;
12725;SDS011;6427;49.754;6.106;2022-09-13T07:45:39;6.00;;;4.10;;
12725;SDS011;6427;49.754;6.106;2022-09-13T07:48:07;5.37;;;3.53;;
12725;SDS011;6427;49.754;6.106;2022-09-13T07:50:34;5.15;;;3.67;;
12725;SDS011;6427;49.754;6.106;2022-09-13T07:53:02;5.97;;;3.65;;
12725;SDS011;6427;49.754;6.106;2022-09-13T07:55:30;5.17;;;3.30;;
12725;SDS011;6427;49.754;6.106;2022-09-13T07:57:57;6.95;;;3.62;;
12725;SDS011;6427;49.754;6.106;2022-09-13T08:00:25;5.07;;;3.50;;
12725;SDS011;6427;49.754;6.106;2022-09-13T08:02:52;6.37;;;3.60;;
12725;SDS011;6427;49.754;6.106;2022-09-13T08:05:20;6.07;;;3.47;;
12725;SDS011;6427;49.754;6.106;2022-09-13T08:07:47;4.03;;;3.50;;
12725;SDS011;6427;49.754;6.106;2022-09-13T08:10:15;4.47;;;3.50;;
12725;SDS011;6427;49.754;6.106;2022-09-13T08:12:42;8.17;;;3.30;;
12725;SDS011;6427;49.754;6.106;2022-09-13T08:15:11;7.23;;;3.43;;
12725;SDS011;6427;49.754;6.106;2022-09-13T08:17:39;6.43;;;3.80;;
12725;SDS011;6427;49.754;6.106;2022-09-13T08:20:07;5.87;;;3.50;;
12725;SDS011;6427;49.754;6.106;2022-09-13T08:22:34;8.47;;;3.50;;
12725;SDS011;6427;49.754;6.106;2022-09-13T08:25:02;7.23;;;3.70;;
12725;SDS011;6427;49.754;6.106;2022-09-13T08:27:30;4.30;;;3.33;;
12725;SDS011;6427;49.754;6.106;2022-09-13T08:29:57;6.75;;;4.10;;
12725;SDS011;6427;49.754;6.106;2022-09-13T08:32:25;5.07;;;3.30;;
12725;SDS011;6427;49.754;6.106;2022-09-13T08:34:52;5.43;;;3.67;;
12725;SDS011;6427;49.754;6.106;2022-09-13T08:37:20;5.53;;;4.07;;
12725;SDS011;6427;49.754;6.106;2022-09-13T08:39:47;6.90;;;3.77;;
12725;SDS011;6427;49.754;6.106;2022-09-13T08:45:01;7.17;;;4.13;;
12725;SDS011;6427;49.754;6.106;2022-09-13T08:47:34;8.50;;;4.20;;
12725;SDS011;6427;49.754;6.106;2022-09-13T08:50:11;9.80;;;4.33;;
12725;SDS011;6427;49.754;6.106;2022-09-13T08:55:36;8.40;;;4.20;;
12725;SDS011;6427;49.754;6.106;2022-09-13T08:58:06;6.97;;;3.93;;
12725;SDS011;6427;49.754;6.106;2022-09-13T09:00:50;9.67;;;4.63;;
12725;SDS011;6427;49.754;6.106;2022-09-13T09:06:11;10.00;;;3.93;;
12725;SDS011;6427;49.754;6.106;2022-09-13T09:08:41;10.67;;;4.10;;
12725;SDS011;6427;49.754;6.106;2022-09-13T09:12:00;5.40;;;3.20;;
12725;SDS011;6427;49.754;6.106;2022-09-13T09:13:43;8.10;;;3.33;;
12725;SDS011;6427;49.754;6.106;2022-09-13T09:16:14;8.47;;;3.90;;
12725;SDS011;6427;49.754;6.106;2022-09-13T09:18:38;6.67;;;3.50;;
12725;SDS011;6427;49.754;6.106;2022-09-13T09:21:09;7.37;;;3.50;;
12725;SDS011;6427;49.754;6.106;2022-09-13T09:23:38;8.57;;;3.50;;
12725;SDS011;6427;49.754;6.106;2022-09-13T09:26:14;8.73;;;3.47;;
12725;SDS011;6427;49.754;6.106;2022-09-13T09:28:45;10.45;;;4.22;;
12725;SDS011;6427;49.754;6.106;2022-09-13T09:31:19;11.63;;;4.67;;
12725;SDS011;6427;49.754;6.106;2022-09-13T09:36:36;14.63;;;5.77;;
12725;SDS011;6427;49.754;6.106;2022-09-13T09:39:02;6.13;;;3.73;;
12725;SDS011;6427;49.754;6.106;2022-09-13T09:41:30;12.07;;;3.60;;
12725;SDS011;6427;49.754;6.106;2022-09-13T09:46:49;8.95;;;4.20;;
12725;SDS011;6427;49.754;6.106;2022-09-13T09:52:05;7.72;;;3.80;;
12725;SDS011;6427;49.754;6.106;2022-09-13T09:54:32;8.60;;;3.70;;
12725;SDS011;6427;49.754;6.106;2022-09-13T09:57:00;10.43;;;3.57;;
12725;SDS011;6427;49.754;6.106;2022-09-13T09:59:28;8.50;;;4.03;;
12725;SDS011;6427;49.754;6.106;2022-09-13T10:01:55;6.17;;;3.60;;
12725;SDS011;6427;49.754;6.106;2022-09-13T10:04:22;6.37;;;3.53;;
12725;SDS011;6427;49.754;6.106;2022-09-13T10:06:51;9.45;;;3.62;;
12725;SDS011;6427;49.754;6.106;2022-09-13T10:09:18;6.80;;;3.10;;
12725;SDS011;6427;49.754;6.106;2022-09-13T10:19:52;6.47;;;3.67;;
12725;SDS011;6427;49.754;6.106;2022-09-13T10:22:18;4.20;;;3.30;;
12725;SDS011;6427;49.754;6.106;2022-09-13T10:24:45;5.27;;;3.50;;
12725;SDS011;6427;49.754;6.106;2022-09-13T10:27:24;4.50;;;2.90;;
12725;SDS011;6427;49.754;6.106;2022-09-13T10:29:52;7.03;;;2.47;;
12725;SDS011;6427;49.754;6.106;2022-09-13T10:32:20;6.03;;;2.53;;
12725;SDS011;6427;49.754;6.106;2022-09-13T10:34:47;4.10;;;2.40;;
12725;SDS011;6427;49.754;6.106;2022-09-13T10:37:16;7.57;;;2.73;;
12725;SDS011;6427;49.754;6.106;2022-09-13T10:39:52;6.28;;;3.00;;
12725;SDS011;6427;49.754;6.106;2022-09-13T10:42:20;6.78;;;3.22;;
12725;SDS011;6427;49.754;6.106;2022-09-13T10:44:54;5.07;;;2.80;;
12725;SDS011;6427;49.754;6.106;2022-09-13T10:47:22;5.27;;;2.60;;
12725;SDS011;6427;49.754;6.106;2022-09-13T10:49:55;7.60;;;3.10;;
12725;SDS011;6427;49.754;6.106;2022-09-13T10:55:14;10.73;;;3.50;;
12725;SDS011;6427;49.754;6.106;2022-09-13T10:57:50;7.77;;;2.87;;
12725;SDS011;6427;49.754;6.106;2022-09-13T11:00:20;5.10;;;3.00;;
12725;SDS011;6427;49.754;6.106;2022-09-13T11:05:49;8.07;;;3.20;;
12725;SDS011;6427;49.754;6.106;2022-09-13T11:11:12;3.10;;;2.80;;
12725;SDS011;6427;49.754;6.106;2022-09-13T11:16:18;8.63;;;3.23;;
12725;SDS011;6427;49.754;6.106;2022-09-13T11:18:48;10.93;;;3.50;;
12725;SDS011;6427;49.754;6.106;2022-09-13T11:24:15;8.53;;;3.20;;
12725;SDS011;6427;49.754;6.106;2022-09-13T11:26:49;7.97;;;3.20;;
12725;SDS011;6427;49.754;6.106;2022-09-13T11:45:25;4.20;;;2.90;;
12725;SDS011;6427;49.754;6.106;2022-09-13T11:48:12;5.13;;;2.97;;
12725;SDS011;6427;49.754;6.106;2022-09-13T11:56:14;7.60;;;2.90;;
12725;SDS011;6427;49.754;6.106;2022-09-13T12:01:12;10.50;;;3.03;;
12725;SDS011;6427;49.754;6.106;2022-09-13T12:03:45;5.77;;;3.17;;
12725;SDS011;6427;49.754;6.106;2022-09-13T12:06:33;4.93;;;2.90;;
12725;SDS011;6427;49.754;6.106;2022-09-13T12:11:46;8.73;;;3.80;;
12725;SDS011;6427;49.754;6.106;2022-09-13T12:14:11;10.33;;;3.90;;
12725;SDS011;6427;49.754;6.106;2022-09-13T12:22:13;10.80;;;3.83;;
12725;SDS011;6427;49.754;6.106;2022-09-13T12:24:47;6.93;;;3.17;;
12725;SDS011;6427;49.754;6.106;2022-09-13T12:27:33;8.20;;;3.40;;
12725;SDS011;6427;49.754;6.106;2022-09-13T12:30:18;11.00;;;3.50;;
12725;SDS011;6427;49.754;6.106;2022-09-13T12:32:45;4.97;;;3.27;;
12725;SDS011;6427;49.754;6.106;2022-09-13T12:35:18;7.15;;;3.62;;
12725;SDS011;6427;49.754;6.106;2022-09-13T12:38:09;9.57;;;3.80;;
12725;SDS011;6427;49.754;6.106;2022-09-13T12:43:43;5.20;;;3.00;;
12725;SDS011;6427;49.754;6.106;2022-09-13T12:49:10;4.43;;;3.30;;
12725;SDS011;6427;49.754;6.106;2022-09-13T12:54:34;4.10;;;2.83;;
12725;SDS011;6427;49.754;6.106;2022-09-13T13:00:16;6.90;;;2.97;;
12725;SDS011;6427;49.754;6.106;2022-09-13T13:03:00;8.33;;;3.30;;
12725;SDS011;6427;49.754;6.106;2022-09-13T13:05:29;4.37;;;3.37;;
12725;SDS011;6427;49.754;6.106;2022-09-13T13:08:29;4.53;;;2.97;;
12725;SDS011;6427;49.754;6.106;2022-09-13T13:10:30;7.40;;;3.53;;
12725;SDS011;6427;49.754;6.106;2022-09-13T13:13:08;16.53;;;4.10;;
12725;SDS011;6427;49.754;6.106;2022-09-13T13:17:52;9.50;;;3.37;;
12725;SDS011;6427;49.754;6.106;2022-09-13T13:46:47;6.07;;;3.70;;
12725;SDS011;6427;49.754;6.106;2022-09-13T13:57:36;7.70;;;4.20;;
12725;SDS011;6427;49.754;6.106;2022-09-13T14:00:12;5.47;;;3.90;;
12725;SDS011;6427;49.754;6.106;2022-09-13T14:02:48;5.47;;;3.77;;
12725;SDS011;6427;49.754;6.106;2022-09-13T14:05:12;7.12;;;4.00;;
12725;SDS011;6427;49.754;6.106;2022-09-13T14:10:48;6.13;;;3.70;;
12725;SDS011;6427;49.754;6.106;2022-09-13T14:16:36;5.40;;;3.70;;
12725;SDS011;6427;49.754;6.106;2022-09-13T14:19:17;9.03;;;3.63;;
12725;SDS011;6427;49.754;6.106;2022-09-13T14:21:43;6.20;;;4.03;;
12725;SDS011;6427;49.754;6.106;2022-09-13T14:24:21;9.27;;;3.90;;
12725;SDS011;6427;49.754;6.106;2022-09-13T14:26:52;8.17;;;4.03;;
12725;SDS011;6427;49.754;6.106;2022-09-13T14:29:19;10.80;;;4.07;;
12725;SDS011;6427;49.754;6.106;2022-09-13T14:31:47;10.03;;;4.33;;
12725;SDS011;6427;49.754;6.106;2022-09-13T14:34:22;4.40;;;4.00;;
12725;SDS011;6427;49.754;6.106;2022-09-13T14:36:53;9.73;;;4.30;;
12725;SDS011;6427;49.754;6.106;2022-09-13T14:39:20;8.23;;;3.97;;
12725;SDS011;6427;49.754;6.106;2022-09-13T14:41:48;5.53;;;3.63;;
12725;SDS011;6427;49.754;6.106;2022-09-13T14:44:20;6.13;;;3.83;;
12725;SDS011;6427;49.754;6.106;2022-09-13T14:46:47;9.47;;;4.70;;
12725;SDS011;6427;49.754;6.106;2022-09-13T14:49:16;7.43;;;4.57;;
12725;SDS011;6427;49.754;6.106;2022-09-13T14:54:16;6.53;;;4.33;;
12725;SDS011;6427;49.754;6.106;2022-09-13T14:56:46;5.47;;;4.43;;
12725;SDS011;6427;49.754;6.106;2022-09-13T14:59:14;9.10;;;4.53;;
12725;SDS011;6427;49.754;6.106;2022-09-13T15:01:55;4.77;;;4.07;;
12725;SDS011;6427;49.754;6.106;2022-09-13T15:04:22;6.27;;;4.60;;
12725;SDS011;6427;49.754;6.106;2022-09-13T15:07:07;5.27;;;4.37;;
12725;SDS011;6427;49.754;6.106;2022-09-13T15:09:34;5.87;;;4.20;;
12725;SDS011;6427;49.754;6.106;2022-09-13T15:12:02;5.37;;;3.80;;
12725;SDS011;6427;49.754;6.106;2022-09-13T15:14:30;4.57;;;3.83;;
12725;SDS011;6427;49.754;6.106;2022-09-13T15:17:05;4.63;;;3.67;;
12725;SDS011;6427;49.754;6.106;2022-09-13T15:22:01;7.30;;;3.63;;
12725;SDS011;6427;49.754;6.106;2022-09-13T15:24:32;5.27;;;3.90;;
12725;SDS011;6427;49.754;6.106;2022-09-13T15:27:06;7.47;;;3.97;;
12725;SDS011;6427;49.754;6.106;2022-09-13T15:29:33;10.30;;;4.40;;
12725;SDS011;6427;49.754;6.106;2022-09-13T15:32:01;6.10;;;4.20;;
12725;SDS011;6427;49.754;6.106;2022-09-13T15:34:29;4.57;;;3.47;;
12725;SDS011;6427;49.754;6.106;2022-09-13T15:37:09;11.00;;;3.43;;
12725;SDS011;6427;49.754;6.106;2022-09-13T15:39:43;6.83;;;4.20;;
12725;SDS011;6427;49.754;6.106;2022-09-13T15:42:16;6.85;;;4.18;;
12725;SDS011;6427;49.754;6.106;2022-09-13T15:44:43;4.90;;;4.07;;
12725;SDS011;6427;49.754;6.106;2022-09-13T15:47:15;5.63;;;3.87;;
12725;SDS011;6427;49.754;6.106;2022-09-13T15:49:50;6.77;;;4.00;;
12725;SDS011;6427;49.754;6.106;2022-09-13T15:52:18;7.63;;;3.73;;
12725;SDS011;6427;49.754;6.106;2022-09-13T15:54:46;5.63;;;3.93;;
12725;SDS011;6427;49.754;6.106;2022-09-13T15:57:20;5.80;;;4.32;;
12725;SDS011;6427;49.754;6.106;2022-09-13T15:59:47;6.57;;;4.57;;
12725;SDS011;6427;49.754;6.106;2022-09-13T16:02:20;6.00;;;4.30;;
12725;SDS011;6427;49.754;6.106;2022-09-13T16:07:13;6.17;;;4.90;;
12725;SDS011;6427;49.754;6.106;2022-09-13T16:09:42;6.82;;;5.55;;
12725;SDS011;6427;49.754;6.106;2022-09-13T16:12:09;9.10;;;5.17;;
12725;SDS011;6427;49.754;6.106;2022-09-13T16:14:40;5.90;;;4.60;;
12725;SDS011;6427;49.754;6.106;2022-09-13T16:17:19;5.53;;;4.70;;
12725;SDS011;6427;49.754;6.106;2022-09-13T16:19:38;5.20;;;4.63;;
12725;SDS011;6427;49.754;6.106;2022-09-13T16:22:05;7.47;;;4.77;;
12725;SDS011;6427;49.754;6.106;2022-09-13T16:24:33;11.63;;;4.70;;
12725;SDS011;6427;49.754;6.106;2022-09-13T16:27:01;6.67;;;5.50;;
12725;SDS011;6427;49.754;6.106;2022-09-13T16:29:29;12.13;;;5.90;;
12725;SDS011;6427;49.754;6.106;2022-09-13T16:31:57;10.47;;;5.30;;
12725;SDS011;6427;49.754;6.106;2022-09-13T16:34:25;8.03;;;6.10;;
12725;SDS011;6427;49.754;6.106;2022-09-13T16:36:52;6.30;;;5.30;;
12725;SDS011;6427;49.754;6.106;2022-09-13T16:39:20;8.97;;;5.67;;
12725;SDS011;6427;49.754;6.106;2022-09-13T16:41:47;8.27;;;5.83;;
12725;SDS011;6427;49.754;6.106;2022-09-13T16:44:16;6.57;;;5.40;;
12725;SDS011;6427;49.754;6.106;2022-09-13T16:46:43;9.83;;;5.87;;
12725;SDS011;6427;49.754;6.106;2022-09-13T16:49:11;6.40;;;5.78;;
12725;SDS011;6427;49.754;6.106;2022-09-13T16:51:38;7.65;;;6.18;;
12725;SDS011;6427;49.754;6.106;2022-09-13T16:54:07;6.97;;;4.80;;
12725;SDS011;6427;49.754;6.106;2022-09-13T16:56:34;6.17;;;5.57;;
12725;SDS011;6427;49.754;6.106;2022-09-13T16:59:02;9.03;;;5.33;;
12725;SDS011;6427;49.754;6.106;2022-09-13T17:01:30;8.03;;;6.47;;
12725;SDS011;6427;49.754;6.106;2022-09-13T17:03:57;9.23;;;6.30;;
12725;SDS011;6427;49.754;6.106;2022-09-13T17:06:26;6.77;;;5.90;;
12725;SDS011;6427;49.754;6.106;2022-09-13T17:08:57;9.17;;;5.50;;
12725;SDS011;6427;49.754;6.106;2022-09-13T17:11:25;8.83;;;5.80;;
12725;SDS011;6427;49.754;6.106;2022-09-13T17:13:51;9.23;;;5.67;;
12725;SDS011;6427;49.754;6.106;2022-09-13T17:16:22;9.37;;;6.00;;
12725;SDS011;6427;49.754;6.106;2022-09-13T17:18:52;7.53;;;5.77;;
12725;SDS011;6427;49.754;6.106;2022-09-13T17:21:20;6.77;;;5.97;;
12725;SDS011;6427;49.754;6.106;2022-09-13T17:23:47;7.93;;;6.20;;
12725;SDS011;6427;49.754;6.106;2022-09-13T17:26:15;8.47;;;5.70;;
12725;SDS011;6427;49.754;6.106;2022-09-13T17:28:42;11.10;;;5.73;;
12725;SDS011;6427;49.754;6.106;2022-09-13T17:31:11;8.23;;;5.57;;
12725;SDS011;6427;49.754;6.106;2022-09-13T17:33:38;7.10;;;5.87;;
12725;SDS011;6427;49.754;6.106;2022-09-13T17:36:06;6.80;;;5.70;;
12725;SDS011;6427;49.754;6.106;2022-09-13T17:38:34;9.70;;;5.50;;
12725;SDS011;6427;49.754;6.106;2022-09-13T17:41:06;6.93;;;5.13;;
12725;SDS011;6427;49.754;6.106;2022-09-13T17:43:33;6.73;;;4.43;;
12725;SDS011;6427;49.754;6.106;2022-09-13T17:46:02;6.17;;;5.03;;
12725;SDS011;6427;49.754;6.106;2022-09-13T17:48:32;8.03;;;5.40;;
12725;SDS011;6427;49.754;6.106;2022-09-13T17:51:03;10.63;;;5.70;;
12725;SDS011;6427;49.754;6.106;2022-09-13T17:53:28;8.25;;;7.00;;
12725;SDS011;6427;49.754;6.106;2022-09-13T17:55:55;9.17;;;6.70;;
12725;SDS011;6427;49.754;6.106;2022-09-13T17:58:24;6.63;;;5.93;;
12725;SDS011;6427;49.754;6.106;2022-09-13T18:00:51;10.83;;;6.50;;
12725;SDS011;6427;49.754;6.106;2022-09-13T18:03:18;6.53;;;5.83;;
12725;SDS011;6427;49.754;6.106;2022-09-13T18:05:46;7.10;;;6.03;;
12725;SDS011;6427;49.754;6.106;2022-09-13T18:08:13;7.27;;;6.00;;
12725;SDS011;6427;49.754;6.106;2022-09-13T18:10:41;7.60;;;5.93;;
12725;SDS011;6427;49.754;6.106;2022-09-13T18:13:09;7.83;;;5.80;;
12725;SDS011;6427;49.754;6.106;2022-09-13T18:15:37;7.50;;;6.75;;
12725;SDS011;6427;49.754;6.106;2022-09-13T18:18:04;7.17;;;5.73;;
12725;SDS011;6427;49.754;6.106;2022-09-13T18:20:32;6.87;;;4.70;;